createdAt,value
2019-04-27T00:03:02.385Z,80.15
2019-04-27T00:08:09.213Z,79.95
2019-04-27T00:13:15.187Z,81.41
2019-04-27T00:18:28.622Z,79.81
2019-04-27T00:23:33.984Z,81.37
2019-04-27T00:28:38.626Z,81.58
2019-04-27T00:33:43.453Z,80.64
2019-04-27T00:39:03.522Z,79.95
2019-04-27T00:44:09.678Z,80.71
2019-04-27T00:49:14.094Z,80.60
2019-04-27T00:54:18.435Z,80.06
2019-04-27T00:59:24.437Z,79.88
2019-04-27T01:04:30.609Z,79.71
2019-04-27T01:09:35.603Z,81.19
2019-04-27T01:14:40.018Z,79.55
2019-04-27T01:19:44.367Z,80.07
2019-04-27T01:24:49.251Z,78.95
2019-04-27T01:29:55.381Z,78.68
2019-04-27T01:34:59.791Z,78.70
2019-04-27T01:40:05.714Z,78.53
2019-04-27T01:45:10.229Z,79.03
2019-04-27T01:50:14.739Z,78.81
2019-04-27T01:55:19.296Z,77.93
2019-04-27T02:00:49.386Z,78.32
2019-04-27T02:05:57.023Z,77.68
2019-04-27T02:11:01.364Z,77.29
2019-04-27T02:16:05.731Z,76.85
2019-04-27T02:21:10.105Z,78.50
2019-04-27T02:26:14.452Z,77.70
2019-04-27T02:31:33.151Z,77.08
2019-04-27T02:36:39.187Z,77.68
2019-04-27T02:41:43.621Z,76.41
2019-04-27T02:46:50.214Z,77.10
2019-04-27T02:52:09.473Z,76.23
2019-04-27T02:57:13.716Z,77.97
2019-04-27T03:02:19.892Z,78.20
2019-04-27T03:07:24.227Z,77.15
2019-04-27T03:12:30.207Z,76.25
2019-04-27T03:17:45.376Z,77.68
2019-04-27T03:22:51.382Z,78.52
2019-04-27T03:27:57.463Z,76.58
2019-04-27T03:33:03.404Z,77.40
2019-04-27T03:38:10.427Z,77.84
2019-04-27T03:43:15.858Z,79.37
2019-04-27T03:48:20.594Z,79.11
2019-04-27T03:53:43.205Z,79.60
2019-04-27T03:58:49.536Z,79.01
2019-04-27T04:03:53.985Z,77.95
2019-04-27T04:09:00.163Z,76.67
2019-04-27T04:14:17.095Z,78.67
2019-04-27T04:19:21.480Z,77.91
2019-04-27T04:24:28.537Z,77.95
2019-04-27T04:29:31.969Z,76.89
2019-04-27T04:34:36.397Z,79.53
2019-04-27T04:39:40.785Z,78.17
2019-04-27T04:44:50.324Z,78.06
2019-04-27T04:50:08.512Z,77.58
2019-04-27T04:55:02.686Z,78.12
2019-04-27T05:00:09.853Z,78.96
2019-04-27T05:05:14.333Z,79.73
2019-04-27T05:10:18.936Z,78.86
2019-04-27T05:15:23.463Z,79.09
2019-04-27T05:20:32.139Z,78.85
2019-04-27T05:25:39.047Z,79.44
2019-04-27T05:30:43.611Z,81.11
2019-04-27T05:35:49.247Z,79.58
2019-04-27T05:40:53.712Z,81.74
2019-04-27T05:46:35.734Z,81.79
2019-04-27T05:51:40.039Z,81.40
2019-04-27T05:56:43.628Z,80.92
2019-04-27T06:01:49.195Z,78.86
2019-04-27T06:06:53.829Z,79.57
2019-04-27T06:11:59.106Z,79.29
2019-04-27T06:17:03.613Z,79.13
2019-04-27T06:22:09.671Z,77.87
2019-04-27T06:27:14.101Z,79.31
2019-04-27T06:32:19.189Z,76.25
2019-04-27T06:37:23.599Z,74.89
2019-04-27T06:42:29.657Z,74.00
2019-04-27T06:47:34.048Z,76.38
2019-04-27T06:52:39.008Z,77.68
2019-04-27T06:57:44.627Z,76.57
2019-04-27T07:02:55.464Z,77.00
2019-04-27T07:07:59.848Z,74.99
2019-04-27T07:13:04.254Z,74.17
2019-04-27T07:18:09.793Z,72.51
2019-04-27T07:23:14.269Z,71.99
2019-04-27T07:28:19.637Z,72.50
2019-04-27T07:33:24.128Z,71.79
2019-04-27T07:38:29.359Z,72.03
2019-04-27T07:43:39.648Z,71.70
2019-04-27T07:48:44.153Z,69.56
2019-04-27T07:53:48.937Z,69.12
2019-04-27T07:58:53.403Z,69.32
2019-04-27T08:03:59.025Z,68.84
2019-04-27T08:09:03.767Z,67.07
2019-04-27T08:14:09.622Z,66.05
2019-04-27T08:19:13.996Z,66.06
2019-04-27T08:24:19.394Z,66.84
2019-04-27T08:29:32.954Z,65.13
2019-04-27T08:34:39.717Z,64.47
2019-04-27T08:39:45.186Z,64.35
2019-04-27T08:44:49.848Z,65.35
2019-04-27T08:49:54.262Z,63.02
2019-04-27T08:54:59.441Z,64.13
2019-04-27T09:00:09.412Z,64.81
2019-04-27T09:05:17.428Z,63.99
2019-04-27T09:10:23.749Z,63.09
2019-04-27T09:15:32.787Z,62.91
2019-04-27T09:20:39.099Z,62.70
2019-04-27T09:25:44.311Z,61.06
2019-04-27T09:30:49.779Z,59.24
2019-04-27T09:35:54.274Z,61.26
2019-04-27T09:40:58.664Z,63.40
2019-04-27T09:46:03.451Z,61.73
2019-04-27T09:51:08.237Z,63.49
2019-04-27T09:56:12.664Z,62.45
2019-04-27T10:01:18.136Z,60.78
2019-04-27T10:06:22.783Z,61.80
2019-04-27T10:11:28.235Z,60.68
2019-04-27T10:16:32.618Z,58.50
2019-04-27T10:21:37.106Z,58.00
2019-04-27T10:26:43.797Z,59.93
2019-04-27T10:31:48.275Z,59.07
2019-04-27T10:36:52.763Z,58.90
2019-04-27T10:41:57.137Z,56.49
2019-04-27T10:47:01.489Z,54.99
2019-04-27T10:52:06.054Z,55.66
2019-04-27T10:57:10.497Z,53.89
2019-04-27T11:02:14.891Z,52.96
2019-04-27T11:07:20.940Z,51.67
2019-04-27T11:12:25.311Z,50.08
2019-04-27T11:17:29.751Z,48.49
2019-04-27T11:22:34.092Z,49.24
2019-04-27T11:27:38.606Z,54.53
2019-04-27T11:32:43.067Z,58.41
2019-04-27T11:37:47.671Z,65.53
2019-04-27T11:42:52.620Z,65.95
2019-04-27T11:47:58.228Z,67.79
2019-04-27T11:53:02.602Z,64.62
2019-04-27T11:58:06.979Z,62.28
2019-04-27T12:03:11.443Z,59.01
2019-04-27T12:08:16.278Z,58.75
2019-04-27T12:13:23.697Z,57.07
2019-04-27T12:18:28.206Z,54.48
2019-04-27T12:23:35.560Z,51.76
2019-04-27T12:28:40.223Z,51.00
2019-04-27T12:33:46.039Z,49.40
2019-04-27T12:38:50.464Z,49.27
2019-04-27T12:43:58.007Z,47.59
2019-04-27T12:49:02.508Z,47.59
2019-04-27T12:54:09.744Z,52.17
2019-04-27T12:59:31.894Z,48.46
2019-04-27T13:04:36.748Z,47.59
2019-04-27T13:09:42.397Z,48.93
2019-04-27T13:14:46.753Z,48.74
2019-04-27T13:19:51.262Z,48.78
2019-04-27T13:24:56.636Z,48.46
2019-04-27T13:30:01.136Z,56.42
2019-04-27T13:35:09.248Z,49.53
2019-04-27T13:40:17.028Z,47.43
2019-04-27T13:45:41.979Z,47.12
2019-04-27T13:51:03.284Z,55.11
2019-04-27T13:56:17.313Z,55.81
2019-04-27T14:01:22.127Z,55.67
2019-04-27T14:06:26.549Z,48.18
2019-04-27T14:11:31.012Z,49.98
2019-04-27T14:16:35.541Z,46.77
2019-04-27T14:21:39.884Z,46.67
2019-04-27T14:26:44.556Z,51.40
2019-04-27T14:31:49.747Z,52.70
2019-04-27T14:36:54.322Z,53.69
2019-04-27T14:41:58.875Z,53.76
2019-04-27T14:47:03.313Z,54.07
2019-04-27T14:52:09.495Z,61.05
2019-04-27T14:57:15.296Z,57.37
2019-04-27T15:02:19.632Z,57.13
2019-04-27T15:07:25.122Z,61.48
2019-04-27T15:12:30.618Z,54.52
2019-04-27T15:17:36.173Z,54.14
2019-04-27T15:22:40.956Z,53.01
2019-04-27T15:27:47.396Z,54.71
2019-04-27T15:32:53.461Z,53.47
2019-04-27T15:37:59.426Z,59.35
2019-04-27T15:43:05.600Z,54.86
2019-04-27T15:48:10.169Z,55.51
2019-04-27T15:53:14.618Z,55.87
2019-04-27T15:58:24.959Z,58.57
2019-04-27T16:03:27.216Z,56.77
2019-04-27T16:08:32.270Z,55.79
2019-04-27T16:13:38.267Z,55.83
2019-04-27T16:18:43.004Z,59.07
2019-04-27T16:23:48.052Z,55.55
2019-04-27T16:28:53.377Z,56.04
2019-04-27T16:34:02.497Z,55.77
2019-04-27T16:39:08.149Z,55.35
2019-04-27T16:44:14.875Z,55.50
2019-04-27T16:49:19.246Z,55.30
2019-04-27T16:54:23.583Z,54.46
2019-04-27T16:59:42.738Z,55.71
2019-04-27T17:04:33.964Z,59.29
2019-04-27T17:09:42.183Z,55.32
2019-04-27T17:14:50.687Z,56.96
2019-04-27T17:19:58.146Z,57.32
2019-04-27T17:25:03.141Z,56.73
2019-04-27T17:30:10.638Z,56.27
2019-04-27T17:35:15.215Z,57.31
2019-04-27T17:40:19.597Z,56.25
2019-04-27T17:45:24.114Z,56.54
2019-04-27T17:50:29.873Z,57.34
2019-04-27T17:55:37.639Z,57.90
2019-04-27T18:00:44.528Z,58.19
2019-04-27T18:05:51.734Z,59.07
2019-04-27T18:11:00.567Z,58.32
2019-04-27T18:16:00.477Z,57.95
2019-04-27T18:21:05.281Z,54.67
2019-04-27T18:26:17.435Z,58.94
2019-04-27T18:31:20.082Z,59.05
2019-04-27T18:36:24.425Z,60.49
2019-04-27T18:41:29.205Z,61.01
2019-04-27T18:46:33.712Z,63.57
2019-04-27T18:51:39.693Z,64.83
2019-04-27T18:56:44.078Z,66.96
2019-04-27T19:01:48.994Z,67.09
2019-04-27T19:06:53.582Z,67.97
2019-04-27T19:11:57.945Z,69.34
2019-04-27T19:17:02.320Z,69.29
2019-04-27T19:22:08.797Z,69.43
2019-04-27T19:27:20.568Z,69.55
2019-04-27T19:32:23.632Z,69.64
2019-04-27T19:37:28.634Z,71.75
2019-04-27T19:42:33.184Z,73.11
2019-04-27T19:47:38.362Z,74.00
2019-04-27T19:52:42.825Z,74.74
2019-04-27T19:57:47.227Z,77.26
2019-04-27T20:02:51.684Z,77.56
2019-04-27T20:07:56.055Z,77.02
2019-04-27T20:13:00.874Z,76.02
2019-04-27T20:18:05.229Z,78.92
2019-04-27T20:23:10.663Z,77.71
2019-04-27T20:28:15.033Z,77.36
2019-04-27T20:33:21.074Z,76.09
2019-04-27T20:38:25.493Z,75.19
2019-04-27T20:43:31.454Z,76.39
2019-04-27T20:48:36.483Z,74.75
2019-04-27T20:53:44.974Z,74.08
2019-04-27T20:58:51.143Z,73.30
2019-04-27T21:03:57.147Z,73.90
2019-04-27T21:09:03.101Z,73.71
2019-04-27T21:14:11.081Z,73.92
2019-04-27T21:19:15.338Z,72.31
2019-04-27T21:24:20.709Z,72.16
2019-04-27T21:29:26.070Z,72.12
2019-04-27T21:34:31.028Z,71.08
2019-04-27T21:39:36.542Z,70.14
2019-04-27T21:44:42.029Z,69.93
2019-04-27T21:49:46.645Z,69.41
2019-04-27T21:54:52.706Z,68.36
2019-04-27T21:59:57.146Z,69.87
2019-04-27T22:05:01.582Z,69.39
2019-04-27T22:10:07.318Z,68.98
2019-04-27T22:15:12.016Z,69.32
2019-04-27T22:20:16.692Z,68.79
2019-04-27T22:25:22.988Z,68.41
2019-04-27T22:30:27.335Z,68.05
2019-04-27T22:35:31.730Z,68.58
2019-04-27T22:40:54.262Z,67.40
2019-04-27T22:46:01.217Z,66.79
2019-04-27T22:51:05.750Z,67.36
2019-04-27T22:56:17.541Z,69.05
2019-04-27T23:01:32.757Z,69.14
2019-04-27T23:06:37.096Z,71.81
2019-04-27T23:11:41.603Z,72.95
2019-04-27T23:16:51.484Z,75.19
2019-04-27T23:21:55.857Z,76.94
2019-04-27T23:27:03.405Z,76.15
2019-04-27T23:32:11.656Z,76.52
2019-04-27T23:37:16.117Z,80.79
2019-04-27T23:42:21.716Z,80.72
2019-04-27T23:47:26.236Z,80.40
2019-04-27T23:52:50.670Z,81.20
2019-04-27T23:57:55.861Z,82.05
